Time;durP1;ratioP1;P1;durP2;ratioP2;P2;SDS_P1;SDS_P2;PMS_P1;PMS_P2;Temp;Humidity;BMP_temperature;BMP_pressure;BME280_temperature;BME280_humidity;BME280_pressure;Samples;Min_cycle;Max_cycle;Signal;HPM_P1;HPM_P2
2021/07/05 00:01:23;;;;;;;8.18;6.60;;;21.80;99.90;;;;;;5030555;28;20048;-76
2021/07/05 00:04:27;;;;;;;8.93;5.75;;;21.70;99.90;;;;;;5042200;28;20048;-76
2021/07/05 00:07:31;;;;;;;9.93;6.82;;;21.60;99.90;;;;;;5031561;28;20403;-76
2021/07/05 00:10:37;;;;;;;10.27;6.88;;;21.60;99.90;;;;;;5032490;28;20495;-76
2021/07/05 00:13:42;;;;;;;10.35;6.50;;;21.50;99.90;;;;;;5031354;28;20056;-76
2021/07/05 00:16:46;;;;;;;8.57;6.80;;;21.50;99.90;;;;;;5031522;28;20049;-76
2021/07/05 00:19:53;;;;;;;10.23;6.90;;;21.40;99.90;;;;;;5032216;28;20048;-76
2021/07/05 00:22:57;;;;;;;10.10;7.15;;;21.40;99.90;;;;;;5030409;28;20051;-76
2021/07/05 00:26:01;;;;;;;9.70;7.13;;;21.40;99.90;;;;;;5031409;28;20049;-76
2021/07/05 00:29:06;;;;;;;11.52;6.63;;;21.30;99.90;;;;;;5031638;28;20041;-76
2021/07/05 00:32:10;;;;;;;11.07;7.15;;;21.30;99.90;;;;;;5030634;28;20048;-76
2021/07/05 00:35:15;;;;;;;9.93;7.43;;;21.20;99.90;;;;;;5031567;28;20407;-76
2021/07/05 00:38:19;;;;;;;8.40;7.18;;;21.20;99.90;;;;;;5031155;28;20064;-76
2021/07/05 00:41:29;;;;;;;10.50;7.45;;;21.10;99.90;;;;;;5030103;28;20049;-76
2021/07/05 00:44:34;;;;;;;10.52;7.35;;;21.00;99.90;;;;;;5031760;28;20388;-76
2021/07/05 00:47:39;;;;;;;8.70;7.20;;;21.00;99.90;;;;;;5041145;28;20060;-76
2021/07/05 00:50:44;;;;;;;13.52;7.78;;;21.00;99.90;;;;;;5029862;28;20037;-76
2021/07/05 00:53:49;;;;;;;10.38;7.50;;;21.00;99.90;;;;;;5030314;28;20053;-76
2021/07/05 00:56:53;;;;;;;11.48;7.65;;;21.10;99.90;;;;;;5030835;28;20049;-76
2021/07/05 00:59:58;;;;;;;11.30;7.95;;;21.00;99.90;;;;;;5030436;28;20495;-76
2021/07/05 01:03:06;;;;;;;8.32;7.38;;;21.00;99.90;;;;;;5031350;28;20041;-76
2021/07/05 01:06:10;;;;;;;13.18;7.78;;;21.00;99.90;;;;;;5032108;28;20046;-76
2021/07/05 01:09:16;;;;;;;11.75;7.15;;;20.90;99.90;;;;;;5041758;28;20998;-76
2021/07/05 01:12:21;;;;;;;9.73;7.80;;;20.90;99.90;;;;;;5033252;28;20060;-76
2021/07/05 01:15:29;;;;;;;11.30;8.60;;;20.80;99.90;;;;;;5030775;28;20377;-76
2021/07/05 01:18:34;;;;;;;12.27;8.55;;;20.70;99.90;;;;;;5030192;28;20040;-76
2021/07/05 01:21:40;;;;;;;11.55;7.65;;;20.70;99.90;;;;;;5030936;28;20076;-76
2021/07/05 01:24:49;;;;;;;11.13;8.48;;;20.70;99.90;;;;;;5030283;28;20075;-76
2021/07/05 01:27:53;;;;;;;14.80;8.00;;;20.80;99.90;;;;;;5032791;28;20388;-76
2021/07/05 01:30:58;;;;;;;12.13;7.32;;;20.80;99.90;;;;;;5030326;28;20025;-76
2021/07/05 01:34:03;;;;;;;17.15;9.05;;;20.80;99.90;;;;;;5032022;28;20048;-76
2021/07/05 01:37:11;;;;;;;10.57;7.78;;;20.80;99.90;;;;;;5031522;28;20044;-76
2021/07/05 01:40:18;;;;;;;9.95;7.95;;;20.80;99.90;;;;;;5028754;28;20080;-76
2021/07/05 01:43:24;;;;;;;9.43;7.95;;;20.80;99.90;;;;;;5033358;28;20041;-76
2021/07/05 01:46:28;;;;;;;9.65;8.07;;;20.90;99.90;;;;;;5044986;28;20397;-76
2021/07/05 01:49:35;;;;;;;11.38;7.47;;;20.90;99.90;;;;;;5034425;28;20033;-76
2021/07/05 01:52:38;;;;;;;11.35;8.18;;;20.90;99.90;;;;;;5033675;28;20048;-76
2021/07/05 01:55:43;;;;;;;10.82;7.43;;;21.00;99.90;;;;;;5034663;28;20052;-76
2021/07/05 01:58:46;;;;;;;10.95;7.65;;;21.10;99.90;;;;;;5034485;28;20538;-76
2021/07/05 02:01:51;;;;;;;10.82;7.70;;;21.10;99.90;;;;;;5034252;28;20397;-76
2021/07/05 02:04:55;;;;;;;13.02;8.43;;;21.10;99.90;;;;;;5034194;28;20040;-76
2021/07/05 02:08:04;;;;;;;9.35;7.82;;;21.10;99.90;;;;;;5044478;28;20052;-76
2021/07/05 02:11:09;;;;;;;9.75;7.28;;;21.10;99.90;;;;;;5034384;28;20510;-76
2021/07/05 02:14:13;;;;;;;9.65;7.25;;;21.10;99.90;;;;;;5021528;28;20045;-76
2021/07/05 02:17:19;;;;;;;8.65;7.35;;;21.10;99.90;;;;;;5034304;28;20053;-76
2021/07/05 02:20:27;;;;;;;13.55;8.00;;;21.20;99.90;;;;;;5033650;28;20053;-76
2021/07/05 02:23:32;;;;;;;9.60;7.35;;;21.20;99.90;;;;;;5033464;28;20048;-76
2021/07/05 02:26:37;;;;;;;9.75;8.13;;;21.20;99.90;;;;;;5034687;28;20392;-76
2021/07/05 02:29:41;;;;;;;9.05;7.75;;;21.20;99.90;;;;;;5034747;28;20038;-76
2021/07/05 02:32:47;;;;;;;15.43;8.35;;;21.20;99.90;;;;;;5026098;28;20504;-76
2021/07/05 02:35:51;;;;;;;12.02;8.60;;;21.20;99.90;;;;;;5019955;28;20045;-76
2021/07/05 02:38:55;;;;;;;13.77;8.13;;;21.10;99.90;;;;;;5028001;28;20045;-76
2021/07/05 02:41:59;;;;;;;11.15;8.27;;;21.10;99.90;;;;;;5030974;28;20044;-76
2021/07/05 02:45:05;;;;;;;12.75;8.63;;;21.00;99.90;;;;;;5031996;28;20045;-76
2021/07/05 02:48:13;;;;;;;10.13;8.25;;;20.90;99.90;;;;;;5032703;28;20043;-76
2021/07/05 02:51:18;;;;;;;17.00;9.57;;;20.80;99.90;;;;;;5032561;28;20495;-76
2021/07/05 02:54:22;;;;;;;13.00;10.05;;;20.80;99.90;;;;;;5032724;28;20040;-76
2021/07/05 02:57:29;;;;;;;12.65;9.32;;;20.70;99.90;;;;;;5032722;28;20052;-76
2021/07/05 03:00:41;;;;;;;13.90;9.35;;;20.60;99.90;;;;;;5042436;28;20052;-76
2021/07/05 03:03:46;;;;;;;11.75;8.95;;;20.50;99.90;;;;;;5033189;28;20049;-76
2021/07/05 03:06:50;;;;;;;11.05;9.65;;;20.50;99.90;;;;;;5042741;28;20048;-74
2021/07/05 03:09:54;;;;;;;13.43;9.95;;;20.50;99.90;;;;;;5014078;28;20044;-76
2021/07/05 03:12:58;;;;;;;14.32;9.27;;;20.40;99.90;;;;;;5011950;28;20045;-76
2021/07/05 03:16:03;;;;;;;18.48;10.15;;;20.30;99.90;;;;;;5011925;28;20041;-76
2021/07/05 03:19:06;;;;;;;11.73;9.43;;;20.30;99.90;;;;;;5012354;28;20483;-76
2021/07/05 03:22:13;;;;;;;12.52;10.10;;;20.20;99.90;;;;;;5011949;28;20048;-76
2021/07/05 03:25:20;;;;;;;13.00;10.00;;;20.10;99.90;;;;;;5022472;28;20049;-76
2021/07/05 03:28:26;;;;;;;14.85;10.65;;;20.00;99.90;;;;;;5012347;28;20041;-76
2021/07/05 03:31:30;;;;;;;14.20;10.68;;;19.90;99.90;;;;;;5012230;28;20563;-76
2021/07/05 03:34:34;;;;;;;17.13;11.07;;;19.80;99.90;;;;;;5013009;28;20041;-75
2021/07/05 03:37:39;;;;;;;17.30;11.88;;;19.80;99.90;;;;;;5012331;28;20052;-76
2021/07/05 03:40:45;;;;;;;19.65;12.77;;;19.70;99.90;;;;;;5022291;28;20041;-76
2021/07/05 03:43:50;;;;;;;17.70;12.07;;;19.70;99.90;;;;;;5023569;28;20045;-76
2021/07/05 03:46:54;;;;;;;16.63;11.40;;;19.60;99.90;;;;;;5012474;28;20073;-76
2021/07/05 03:49:58;;;;;;;15.48;11.57;;;19.60;99.90;;;;;;5012975;28;20053;-76
2021/07/05 03:53:03;;;;;;;17.95;11.43;;;19.50;99.90;;;;;;5011997;28;20072;-76
2021/07/05 03:56:07;;;;;;;18.80;12.32;;;19.60;99.90;;;;;;5012514;28;20045;-76
2021/07/05 03:59:14;;;;;;;14.45;11.60;;;19.50;99.90;;;;;;5012231;28;20068;-76
2021/07/05 04:02:20;;;;;;;14.13;10.80;;;19.50;99.90;;;;;;5011772;28;20049;-76
2021/07/05 04:05:24;;;;;;;19.25;11.77;;;19.50;99.90;;;;;;5011710;28;20049;-76
2021/07/05 04:08:29;;;;;;;16.73;11.32;;;19.50;99.90;;;;;;5011849;28;20048;-76
2021/07/05 04:11:33;;;;;;;18.02;11.55;;;19.40;99.90;;;;;;5012116;28;20531;-76
2021/07/05 04:14:38;;;;;;;14.57;11.00;;;19.40;99.90;;;;;;5022610;28;20045;-76
2021/07/05 04:17:43;;;;;;;14.55;11.45;;;19.50;99.90;;;;;;5012496;28;20041;-76
2021/07/05 04:20:48;;;;;;;15.45;11.05;;;19.60;99.90;;;;;;5014832;28;20049;-76
2021/07/05 04:23:54;;;;;;;15.23;10.32;;;19.70;99.90;;;;;;5013179;28;20400;-76
2021/07/05 04:26:58;;;;;;;12.88;11.02;;;19.90;99.90;;;;;;5010981;28;20053;-76
2021/07/05 04:30:04;;;;;;;13.18;11.10;;;20.00;99.90;;;;;;5011910;28;20049;-76
2021/07/05 04:33:09;;;;;;;17.15;11.60;;;20.10;99.90;;;;;;5014302;28;20358;-76
2021/07/05 04:36:13;;;;;;;16.75;10.57;;;20.20;99.90;;;;;;5015633;28;20041;-76
2021/07/05 04:39:21;;;;;;;12.52;11.20;;;20.30;99.90;;;;;;5013131;28;20037;-76
2021/07/05 04:42:28;;;;;;;13.43;10.15;;;20.50;99.90;;;;;;5012997;28;20040;-76
2021/07/05 04:45:33;;;;;;;11.45;10.25;;;20.60;99.90;;;;;;5026384;28;20053;-76
2021/07/05 04:48:37;;;;;;;13.15;10.48;;;20.80;99.90;;;;;;5014029;28;20044;-76
2021/07/05 04:51:43;;;;;;;13.85;10.05;;;21.00;99.90;;;;;;5012342;28;20053;-76
2021/07/05 04:54:47;;;;;;;13.50;10.90;;;21.10;99.90;;;;;;5013727;28;20041;-76
2021/07/05 04:57:53;;;;;;;14.93;9.70;;;21.10;99.90;;;;;;5010983;28;20408;-76
2021/07/05 05:01:00;;;;;;;14.80;10.70;;;21.20;99.90;;;;;;5024042;28;20049;-76
2021/07/05 05:04:04;;;;;;;19.05;10.05;;;21.20;99.90;;;;;;5011004;28;20053;-76
2021/07/05 05:07:10;;;;;;;12.00;9.30;;;21.30;99.90;;;;;;5011854;28;20052;-76
2021/07/05 05:10:17;;;;;;;12.40;8.90;;;21.40;99.90;;;;;;5011208;28;20049;-76
2021/07/05 05:13:21;;;;;;;11.93;9.07;;;21.50;99.90;;;;;;5011602;28;20049;-76
2021/07/05 05:16:25;;;;;;;13.95;10.65;;;21.70;99.90;;;;;;5029100;28;20040;-76
2021/07/05 05:19:30;;;;;;;11.20;9.70;;;21.70;99.90;;;;;;5015704;28;20045;-76
2021/07/05 05:22:34;;;;;;;11.85;9.05;;;21.90;99.90;;;;;;5013763;28;20049;-76
2021/07/05 05:25:38;;;;;;;12.52;9.35;;;22.10;99.90;;;;;;5027643;28;20049;-74
2021/07/05 05:28:45;;;;;;;11.68;8.70;;;22.30;99.90;;;;;;5026875;28;20040;-74
2021/07/05 05:31:50;;;;;;;10.93;8.95;;;22.40;99.90;;;;;;5034964;28;20045;-74
2021/07/05 05:34:54;;;;;;;8.30;7.50;;;22.60;99.90;;;;;;5036355;28;20044;-74
2021/07/05 05:37:59;;;;;;;11.48;7.57;;;24.10;99.90;;;;;;5034156;28;20033;-74
2021/07/05 05:41:04;;;;;;;12.25;7.93;;;25.20;99.90;;;;;;5033377;28;20044;-72
2021/07/05 05:44:08;;;;;;;8.77;6.32;;;26.90;99.90;;;;;;5029486;28;20383;-70
2021/07/05 05:47:13;;;;;;;15.48;5.88;;;28.60;99.90;;;;;;5035170;28;20048;-74
2021/07/05 05:50:17;;;;;;;10.68;5.95;;;29.80;99.90;;;;;;5033029;28;20502;-72
2021/07/05 05:53:22;;;;;;;12.55;5.72;;;30.10;99.90;;;;;;5034478;28;20045;-73
2021/07/05 05:56:27;;;;;;;6.03;5.05;;;30.50;99.00;;;;;;5028442;28;20530;-73
2021/07/05 05:59:33;;;;;;;9.43;4.88;;;31.00;98.00;;;;;;5030726;28;20044;-74
2021/07/05 06:02:38;;;;;;;9.10;4.90;;;31.60;96.50;;;;;;5028293;28;20053;-70
2021/07/05 06:05:43;;;;;;;6.80;4.43;;;31.60;95.90;;;;;;5029449;28;20045;-70
2021/07/05 06:08:54;;;;;;;7.43;5.47;;;31.50;95.40;;;;;;5031780;28;20047;-71
2021/07/05 06:11:59;;;;;;;7.97;4.50;;;31.60;95.20;;;;;;5027661;28;20048;-70
2021/07/05 06:15:07;;;;;;;7.63;4.68;;;31.70;94.80;;;;;;5031525;28;20036;-69
2021/07/05 06:18:12;;;;;;;9.70;5.10;;;32.00;94.00;;;;;;5029988;28;20388;-71
2021/07/05 06:21:18;;;;;;;6.57;3.90;;;31.30;94.60;;;;;;5031274;28;20391;-70
2021/07/05 06:24:23;;;;;;;5.13;4.55;;;30.20;95.60;;;;;;5020721;28;20049;-70
2021/07/05 06:27:28;;;;;;;7.50;4.53;;;30.20;95.70;;;;;;5037412;28;20498;-70
2021/07/05 06:30:34;;;;;;;7.28;4.28;;;30.20;95.60;;;;;;5026888;28;20042;-70
2021/07/05 06:33:39;;;;;;;10.32;4.35;;;29.90;95.70;;;;;;5014046;28;20052;-70
2021/07/05 06:36:43;;;;;;;9.95;5.22;;;30.40;95.00;;;;;;5027708;28;20372;-73
2021/07/05 06:40:05;;;;;;;9.07;5.95;;;29.60;95.10;;;;;;5033743;28;20041;-70
2021/07/05 06:43:11;;;;;;;9.32;4.95;;;28.40;96.70;;;;;;5034867;28;20052;-70
2021/07/05 06:46:16;;;;;;;18.38;5.95;;;27.50;97.70;;;;;;5034204;28;20052;-70
2021/07/05 06:49:21;;;;;;;11.50;4.68;;;27.10;99.00;;;;;;5022883;28;20044;-70
2021/07/05 06:52:25;;;;;;;10.32;3.92;;;27.60;98.80;;;;;;5033352;28;20052;-70
2021/07/05 06:55:29;;;;;;;7.10;3.65;;;29.10;97.10;;;;;;5014136;28;20053;-73
2021/07/05 06:58:34;;;;;;;8.63;3.60;;;30.70;94.90;;;;;;5023846;28;20045;-72
2021/07/05 07:01:39;;;;;;;5.13;3.05;;;32.10;92.90;;;;;;5031435;28;20052;-73
2021/07/05 07:04:43;;;;;;;7.35;3.25;;;32.80;91.30;;;;;;5013986;28;20058;-73
2021/07/05 07:07:56;;;;;;;6.78;2.97;;;33.40;90.40;;;;;;5002071;28;20045;-73
2021/07/05 07:11:00;;;;;;;4.97;2.88;;;34.20;88.80;;;;;;5013172;28;20503;-72
2021/07/05 07:14:04;;;;;;;5.10;2.50;;;34.80;86.10;;;;;;5013936;28;20037;-74
2021/07/05 07:17:19;;;;;;;7.70;2.80;;;35.20;85.20;;;;;;5013630;28;20050;-74
2021/07/05 07:20:23;;;;;;;5.90;2.53;;;35.20;84.00;;;;;;5000713;28;20400;-73
2021/07/05 07:23:27;;;;;;;5.07;3.30;;;34.70;83.70;;;;;;5013426;28;20038;-72
2021/07/05 07:26:31;;;;;;;10.55;3.28;;;33.90;85.80;;;;;;5020032;28;20395;-73
2021/07/05 07:29:35;;;;;;;9.43;2.92;;;34.10;85.30;;;;;;5020423;28;20048;-73
2021/07/05 07:32:40;;;;;;;6.47;2.97;;;34.40;84.60;;;;;;5020727;28;20044;-75
2021/07/05 07:35:45;;;;;;;8.02;3.08;;;34.60;84.00;;;;;;5013336;28;20045;-71
2021/07/05 07:38:52;;;;;;;4.82;2.88;;;33.50;85.00;;;;;;5016631;28;20042;-72
2021/07/05 07:41:56;;;;;;;7.43;2.85;;;33.50;85.00;;;;;;5022609;28;20037;-70
2021/07/05 07:45:00;;;;;;;5.60;2.90;;;33.60;84.30;;;;;;5024677;28;20038;-71
2021/07/05 07:48:06;;;;;;;12.00;3.60;;;34.10;84.20;;;;;;5022834;28;20428;-71
2021/07/05 07:51:12;;;;;;;4.00;2.90;;;34.90;83.00;;;;;;5012135;28;20396;-71
2021/07/05 07:54:16;;;;;;;7.18;2.70;;;35.90;81.20;;;;;;5013715;28;20399;-71
2021/07/05 07:57:20;;;;;;;2.72;2.13;;;36.50;79.70;;;;;;5012475;28;20045;-72
2021/07/05 08:00:29;;;;;;;6.75;2.78;;;37.80;78.30;;;;;;5024240;28;20048;-71
2021/07/05 08:03:35;;;;;;;4.00;2.65;;;38.80;76.30;;;;;;5027896;28;20061;-71
2021/07/05 08:06:40;;;;;;;3.22;2.38;;;39.20;75.10;;;;;;5028880;28;20041;-71
2021/07/05 08:09:44;;;;;;;8.15;2.53;;;38.90;74.20;;;;;;5024353;28;20041;-70
2021/07/05 08:12:48;;;;;;;7.57;2.30;;;38.30;74.50;;;;;;5002340;28;20057;-71
2021/07/05 08:15:53;;;;;;;10.02;2.50;;;38.00;74.20;;;;;;5020234;28;20041;-70
2021/07/05 08:18:58;;;;;;;3.78;2.20;;;38.10;74.40;;;;;;5026085;28;20041;-69
2021/07/05 08:22:02;;;;;;;7.13;2.17;;;37.60;74.40;;;;;;5028847;28;20177;-71
2021/07/05 08:25:07;;;;;;;12.80;3.40;;;37.40;74.40;;;;;;5022177;28;20029;-71
2021/07/05 08:28:14;;;;;;;11.45;2.65;;;37.80;73.10;;;;;;5022232;28;20056;-73
2021/07/05 08:31:19;;;;;;;7.97;2.25;;;38.50;73.00;;;;;;4992605;28;20048;-71
2021/07/05 08:34:23;;;;;;;9.15;2.60;;;39.40;71.90;;;;;;5031677;28;20045;-71
2021/07/05 08:37:27;;;;;;;5.25;2.03;;;40.10;70.30;;;;;;5024733;28;20050;-71
2021/07/05 08:40:31;;;;;;;4.60;2.42;;;40.80;69.40;;;;;;5029716;28;20033;-70
2021/07/05 08:43:41;;;;;;;4.78;2.15;;;40.10;69.70;;;;;;5023419;28;20051;-71
2021/07/05 08:46:55;;;;;;;6.25;2.30;;;39.30;70.50;;;;;;5003355;28;20044;-72
2021/07/05 08:50:00;;;;;;;7.25;2.22;;;39.40;70.80;;;;;;5026394;28;20063;-70
2021/07/05 08:53:05;;;;;;;3.25;2.40;;;39.20;70.00;;;;;;5029245;28;20102;-71
2021/07/05 08:56:10;;;;;;;7.20;3.10;;;39.10;69.50;;;;;;5015261;28;20520;-71
2021/07/05 08:59:21;;;;;;;10.88;2.67;;;38.10;69.30;;;;;;5026789;28;20045;-71
2021/07/05 09:02:27;;;;;;;17.33;2.75;;;37.50;71.80;;;;;;5027612;28;20046;-71
2021/07/05 09:05:31;;;;;;;6.88;2.10;;;39.20;70.00;;;;;;5023176;28;20049;-71
2021/07/05 09:08:38;;;;;;;3.63;2.03;;;40.60;67.70;;;;;;5011052;28;20030;-71
2021/07/05 09:11:46;;;;;;;4.30;2.20;;;42.10;65.70;;;;;;5023613;28;20045;-71
2021/07/05 09:15:13;;;;;;;3.30;1.70;;;42.30;64.80;;;;;;5027916;28;20068;-72
2021/07/05 09:18:32;;;;;;;3.13;1.88;;;41.40;66.00;;;;;;5011493;28;20042;-71
2021/07/05 09:21:37;;;;;;;8.35;2.97;;;42.90;64.80;;;;;;5030457;28;20033;-71
2021/07/05 09:24:44;;;;;;;7.10;1.95;;;43.80;63.40;;;;;;5030234;28;20384;-72
2021/07/05 09:27:58;;;;;;;25.08;3.20;;;44.00;62.30;;;;;;5030812;28;20041;-74
2021/07/05 09:31:02;;;;;;;2.30;1.65;;;44.20;62.20;;;;;;5024973;28;20040;-74
2021/07/05 09:34:17;;;;;;;4.35;1.65;;;45.20;61.10;;;;;;5012413;28;20041;-74
2021/07/05 09:37:25;;;;;;;11.43;2.20;;;46.40;60.70;;;;;;5010809;28;20105;-73
2021/07/05 09:40:29;;;;;;;2.63;1.90;;;42.50;60.80;;;;;;5029755;28;20049;-73
2021/07/05 09:43:33;;;;;;;5.22;1.90;;;39.80;63.90;;;;;;5029909;28;20065;-75
2021/07/05 09:46:51;;;;;;;4.80;1.67;;;40.50;65.40;;;;;;5001581;28;20038;-73
2021/07/05 09:51:05;;;;;;;3.80;1.88;;;43.20;61.40;;;;;;5049276;28;20403;-51
2021/07/05 09:54:09;;;;;;;4.40;1.70;;;44.60;61.30;;;;;;5046337;28;20030;-48
2021/07/05 09:57:28;;;;;;;4.72;1.63;;;45.30;59.60;;;;;;5037436;28;20038;-50
2021/07/05 10:00:38;;;;;;;17.85;2.58;;;46.40;58.80;;;;;;5045137;28;20033;-55
2021/07/05 10:03:42;;;;;;;10.07;2.13;;;46.60;58.80;;;;;;5044742;28;20040;-55
2021/07/05 10:06:47;;;;;;;6.25;2.00;;;45.00;57.80;;;;;;5039903;28;20287;-49
2021/07/05 10:09:52;;;;;;;2.92;1.80;;;41.30;61.10;;;;;;5041179;28;20579;-49
2021/07/05 10:13:01;;;;;;;3.60;1.70;;;42.70;60.60;;;;;;5029033;28;20065;-53
2021/07/05 10:16:10;;;;;;;3.50;1.90;;;44.60;59.10;;;;;;5027119;28;20502;-52
2021/07/05 10:19:14;;;;;;;4.93;1.80;;;46.30;57.90;;;;;;5034688;28;20033;-54
2021/07/05 10:22:18;;;;;;;1.98;1.70;;;46.70;56.80;;;;;;5028505;28;20045;-50
2021/07/05 10:25:25;;;;;;;4.85;1.80;;;46.80;55.70;;;;;;5044304;28;20041;-50
2021/07/05 10:28:29;;;;;;;3.17;1.67;;;47.10;56.70;;;;;;5046907;28;20033;-50
2021/07/05 10:31:35;;;;;;;2.58;1.42;;;47.40;56.30;;;;;;5047286;28;20037;-50
2021/07/05 10:34:43;;;;;;;3.15;1.83;;;47.70;55.40;;;;;;5041088;28;20037;-52
2021/07/05 10:38:02;;;;;;;2.92;1.60;;;46.50;54.30;;;;;;5041129;28;20030;-50
2021/07/05 10:41:14;;;;;;;3.15;1.90;;;44.20;56.70;;;;;;5044101;28;20033;-51
2021/07/05 10:44:21;;;;;;;2.53;1.42;;;44.30;57.30;;;;;;5027384;28;20492;-51
2021/07/05 10:47:45;;;;;;;10.13;1.80;;;45.30;56.00;;;;;;5037449;22;20516;-50
2021/07/05 10:50:52;;;;;;;2.40;1.60;;;45.70;55.80;;;;;;5019480;28;20032;-47
2021/07/05 10:53:56;;;;;;;2.90;1.65;;;44.60;56.20;;;;;;5012968;28;20038;-46
2021/07/05 10:57:00;;;;;;;5.45;1.75;;;44.30;57.20;;;;;;5010315;28;20042;-48
2021/07/05 11:00:13;;;;;;;3.45;1.50;;;44.00;56.90;;;;;;5006060;28;20042;-47
2021/07/05 11:03:35;;;;;;;3.88;1.58;;;44.00;55.90;;;;;;5004103;28;20046;-46
2021/07/05 11:06:41;;;;;;;5.65;1.83;;;43.90;56.70;;;;;;5007742;28;20034;-50
2021/07/05 11:09:57;;;;;;;1.58;1.48;;;44.70;55.50;;;;;;4993115;28;20038;-46
2021/07/05 11:13:03;;;;;;;4.35;1.27;;;44.20;55.60;;;;;;4997352;28;20033;-48
2021/07/05 11:16:09;;;;;;;3.75;1.33;;;44.30;56.30;;;;;;5011979;28;20037;-47
2021/07/05 11:19:36;;;;;;;8.43;1.58;;;44.30;55.50;;;;;;4995137;28;20046;-45
2021/07/05 11:22:55;;;;;;;6.60;1.50;;;44.80;55.20;;;;;;4992455;28;20035;-48
2021/07/05 11:26:19;;;;;;;4.85;1.50;;;44.90;55.00;;;;;;4988492;28;20520;-46
2021/07/05 11:29:25;;;;;;;3.15;1.50;;;44.30;55.30;;;;;;4989680;28;20042;-45
2021/07/05 11:32:40;;;;;;;3.28;1.30;;;44.80;55.40;;;;;;5002432;28;20038;-50
2021/07/05 11:35:44;;;;;;;1.98;1.60;;;45.10;54.20;;;;;;4972690;28;20051;-46
2021/07/05 11:39:01;;;;;;;7.22;1.50;;;43.60;55.20;;;;;;4987670;28;20034;-47
2021/07/05 11:42:05;;;;;;;3.83;1.70;;;43.40;55.90;;;;;;4979075;28;20378;-45
2021/07/05 11:45:10;;;;;;;6.65;1.50;;;43.60;56.10;;;;;;4992108;28;20472;-47
2021/07/05 11:48:40;;;;;;;3.50;1.40;;;44.00;55.60;;;;;;4992638;28;20468;-49
2021/07/05 11:51:50;;;;;;;1.90;1.60;;;43.30;54.50;;;;;;4994229;28;20053;-48
2021/07/05 11:55:00;;;;;;;6.25;1.60;;;41.40;56.20;;;;;;4996492;28;20042;-45
2021/07/05 11:58:07;;;;;;;9.93;2.00;;;40.60;57.30;;;;;;5011251;28;20038;-46
2021/07/05 12:01:12;;;;;;;7.60;2.00;;;39.10;59.20;;;;;;4995049;28;20046;-50
2021/07/05 12:04:16;;;;;;;5.35;1.90;;;39.00;60.60;;;;;;4994640;28;20042;-48
2021/07/05 12:07:21;;;;;;;4.13;1.88;;;39.00;59.80;;;;;;4986663;28;20042;-44
2021/07/05 12:10:30;;;;;;;3.15;2.10;;;37.20;61.00;;;;;;5002141;28;20034;-45
2021/07/05 12:13:34;;;;;;;5.82;2.25;;;37.20;62.70;;;;;;4990189;28;20030;-48
2021/07/05 12:16:41;;;;;;;6.05;2.10;;;36.40;63.90;;;;;;4993352;28;20038;-49
2021/07/05 12:19:49;;;;;;;6.20;2.20;;;35.90;65.10;;;;;;4989566;28;20042;-46
2021/07/05 12:22:53;;;;;;;2.45;1.90;;;35.90;63.70;;;;;;4991362;28;20039;-46
2021/07/05 12:26:17;;;;;;;6.78;1.75;;;37.00;60.90;;;;;;4992440;28;20047;-45
2021/07/05 12:29:44;;;;;;;2.83;1.80;;;37.90;59.50;;;;;;4997810;28;20038;-46
2021/07/05 12:32:47;;;;;;;7.22;2.03;;;35.40;63.40;;;;;;5009304;28;20034;-49
2021/07/05 12:35:58;;;;;;;7.57;1.90;;;36.40;64.20;;;;;;4996180;28;20042;-45
2021/07/05 12:39:08;;;;;;;4.28;2.40;;;37.30;63.70;;;;;;4993591;28;20041;-46
2021/07/05 12:42:30;;;;;;;6.65;2.10;;;37.60;62.70;;;;;;4988857;28;20037;-46
2021/07/05 12:45:38;;;;;;;10.77;2.40;;;37.50;61.30;;;;;;4987917;28;20037;-44
2021/07/05 12:48:43;;;;;;;10.50;2.20;;;35.30;65.00;;;;;;4987990;28;20045;-48
2021/07/05 12:51:47;;;;;;;4.22;1.98;;;36.20;65.20;;;;;;4998321;28;20041;-44
2021/07/05 12:55:14;;;;;;;4.38;1.95;;;37.30;63.20;;;;;;4998008;28;20508;-45
2021/07/05 12:58:36;;;;;;;4.70;2.40;;;38.10;62.20;;;;;;4989570;28;20045;-46
2021/07/05 13:01:41;;;;;;;2.90;1.80;;;38.20;62.20;;;;;;4972975;28;20800;-45
2021/07/05 13:04:45;;;;;;;4.60;1.90;;;38.30;61.30;;;;;;4987579;28;20038;-44
2021/07/05 13:07:55;;;;;;;7.65;2.05;;;38.60;61.00;;;;;;4988512;28;20042;-45
2021/07/05 13:11:15;;;;;;;5.97;1.90;;;38.60;60.90;;;;;;4988959;28;20055;-44
2021/07/05 13:14:24;;;;;;;3.75;1.90;;;38.40;61.70;;;;;;4970741;28;20042;-47
2021/07/05 13:17:34;;;;;;;14.32;1.70;;;38.00;60.60;;;;;;4989789;28;20026;-43
2021/07/05 13:20:39;;;;;;;22.60;3.17;;;37.60;60.90;;;;;;4990249;28;20049;-43
2021/07/05 13:23:43;;;;;;;5.50;1.75;;;36.80;62.50;;;;;;4990059;28;20050;-44
2021/07/05 13:26:49;;;;;;;6.43;1.73;;;37.00;63.00;;;;;;4986883;28;20060;-49
2021/07/05 13:29:55;;;;;;;9.98;2.13;;;37.40;62.80;;;;;;4988045;28;20051;-49
2021/07/05 13:33:02;;;;;;;7.07;1.90;;;36.90;62.50;;;;;;4989168;28;20034;-44
2021/07/05 13:36:06;;;;;;;7.47;2.50;;;36.80;63.00;;;;;;4988597;28;20042;-47
2021/07/05 13:39:11;;;;;;;12.68;2.13;;;36.90;62.10;;;;;;4979851;28;20037;-49
2021/07/05 13:42:20;;;;;;;5.82;1.90;;;36.90;63.20;;;;;;4984727;28;20053;-46
2021/07/05 13:45:27;;;;;;;7.95;1.80;;;35.30;62.80;;;;;;4988883;28;20126;-47
2021/07/05 13:48:39;;;;;;;7.45;1.90;;;35.50;65.00;;;;;;4986221;28;20061;-44
2021/07/05 13:51:46;;;;;;;6.80;1.67;;;35.70;64.10;;;;;;4970960;28;20050;-48
2021/07/05 13:54:52;;;;;;;6.78;1.70;;;35.60;63.40;;;;;;4984329;28;20543;-45
2021/07/05 13:58:00;;;;;;;4.18;1.60;;;34.90;64.30;;;;;;4970122;28;20520;-45
2021/07/05 14:01:15;;;;;;;3.60;1.60;;;35.40;64.50;;;;;;4978994;28;20046;-49
2021/07/05 14:04:19;;;;;;;9.93;2.70;;;35.60;63.80;;;;;;4987956;28;20030;-47
2021/07/05 14:07:25;;;;;;;6.90;1.67;;;35.80;63.20;;;;;;4978679;28;20043;-44
2021/07/05 14:10:30;;;;;;;4.90;1.40;;;36.10;61.90;;;;;;4978425;28;20075;-48
2021/07/05 14:13:38;;;;;;;4.53;1.67;;;36.00;61.50;;;;;;4989254;28;20041;-48
2021/07/05 14:16:42;;;;;;;3.33;1.20;;;35.80;62.00;;;;;;4987961;28;20038;-44
2021/07/05 14:19:47;;;;;;;3.40;1.40;;;34.60;61.80;;;;;;4985642;28;20408;-46
2021/07/05 14:22:51;;;;;;;8.55;1.40;;;34.80;62.30;;;;;;4977462;28;20266;-49
2021/07/05 14:25:57;;;;;;;4.50;1.20;;;34.90;63.00;;;;;;4987229;28;20043;-45
2021/07/05 14:29:02;;;;;;;2.88;1.35;;;35.00;62.60;;;;;;4980612;28;20508;-45
2021/07/05 14:32:07;;;;;;;3.03;1.33;;;34.90;62.40;;;;;;4983365;28;20110;-48
2021/07/05 14:35:13;;;;;;;5.97;1.30;;;34.70;62.30;;;;;;4977525;28;20400;-48
2021/07/05 14:38:17;;;;;;;2.83;1.15;;;34.10;60.80;;;;;;4992962;28;20424;-48
2021/07/05 14:41:22;;;;;;;14.48;1.25;;;32.60;61.60;;;;;;4977900;28;20048;-50
2021/07/05 14:44:27;;;;;;;8.63;1.02;;;32.30;64.20;;;;;;4981757;28;20053;-49
2021/07/05 14:47:31;;;;;;;2.70;0.98;;;32.70;63.60;;;;;;4973714;28;20050;-48
2021/07/05 14:50:35;;;;;;;5.10;0.90;;;32.30;63.30;;;;;;4982198;28;20046;-47
2021/07/05 14:53:39;;;;;;;10.48;1.58;;;32.50;63.80;;;;;;4983358;28;20041;-47
2021/07/05 14:56:43;;;;;;;2.92;1.30;;;32.80;63.60;;;;;;4982556;28;20046;-48
2021/07/05 14:59:48;;;;;;;2.80;0.95;;;32.60;63.10;;;;;;4991355;28;20551;-46
2021/07/05 15:02:54;;;;;;;8.77;1.40;;;32.80;64.10;;;;;;4991992;28;20046;-45
2021/07/05 15:05:58;;;;;;;3.95;0.98;;;32.90;65.10;;;;;;4984285;28;20046;-44
2021/07/05 15:09:04;;;;;;;1.60;1.08;;;33.20;62.50;;;;;;4992179;28;20138;-43
2021/07/05 15:12:08;;;;;;;12.90;1.75;;;33.10;63.00;;;;;;4987183;28;20507;-43
2021/07/05 15:15:13;;;;;;;7.55;1.23;;;33.20;64.00;;;;;;4991812;28;20050;-44
2021/07/05 15:18:17;;;;;;;4.72;1.00;;;33.20;62.50;;;;;;4992805;28;20042;-44
2021/07/05 15:21:24;;;;;;;3.90;1.20;;;32.60;63.70;;;;;;4992633;28;20046;-45
2021/07/05 15:24:28;;;;;;;11.40;1.55;;;32.30;64.20;;;;;;4992499;28;20069;-45
2021/07/05 15:27:32;;;;;;;3.10;1.05;;;32.00;64.40;;;;;;4992322;28;20074;-45
2021/07/05 15:30:36;;;;;;;5.28;1.30;;;32.10;64.50;;;;;;4991701;28;20539;-46
2021/07/05 15:33:41;;;;;;;5.45;1.80;;;32.40;65.40;;;;;;4990920;28;20035;-45
2021/07/05 15:36:45;;;;;;;4.38;1.30;;;31.60;65.70;;;;;;4991520;28;20378;-44
2021/07/05 15:39:51;;;;;;;8.80;1.30;;;32.00;66.60;;;;;;4955327;28;20046;-49
2021/07/05 15:42:55;;;;;;;3.00;1.35;;;32.30;66.00;;;;;;4953980;28;20515;-47
2021/07/05 15:45:59;;;;;;;7.97;1.30;;;32.60;65.20;;;;;;4954019;28;20499;-46
2021/07/05 15:49:04;;;;;;;4.75;1.20;;;32.00;66.50;;;;;;4962331;28;20049;-48
2021/07/05 15:52:08;;;;;;;4.00;1.17;;;32.20;66.60;;;;;;4979267;28;20051;-45
2021/07/05 15:55:13;;;;;;;7.70;1.70;;;32.10;66.00;;;;;;4979286;28;20037;-49
2021/07/05 15:58:18;;;;;;;36.63;3.05;;;31.30;67.30;;;;;;4978753;28;20067;-47
2021/07/05 16:01:22;;;;;;;11.23;1.10;;;31.60;67.10;;;;;;4968955;28;20045;-47
2021/07/05 16:04:27;;;;;;;30.00;2.80;;;31.60;67.00;;;;;;4979455;28;20048;-47